Time;durP1;ratioP1;P1;durP2;ratioP2;P2;SDS_P1;SDS_P2;PMS_P1;PMS_P2;Temp;Humidity;BMP_temperature;BMP_pressure;BME280_temperature;BME280_humidity;BME280_pressure;Samples;Min_cycle;Max_cycle;Signal;HPM_P1;HPM_P2
2022/01/21 00:00:38;;;;;;;8.68;3.92;;;;;;;2.02;78.08;101369.06;5044439;28;20087;-86
2022/01/21 00:03:04;;;;;;;9.05;4.00;;;;;;;1.92;78.49;101363.84;5026759;28;20044;-86
2022/01/21 00:05:29;;;;;;;14.18;4.95;;;;;;;1.98;77.43;101376.63;5045304;28;20029;-86
2022/01/21 00:07:55;;;;;;;22.23;4.43;;;;;;;1.65;78.59;101373.94;5044121;28;20048;-86
2022/01/21 00:10:20;;;;;;;9.82;2.67;;;;;;;1.84;79.10;101384.38;5045076;28;20116;-86
2022/01/21 00:12:47;;;;;;;6.13;2.25;;;;;;;1.80;79.22;101371.41;5029788;28;20349;-86
2022/01/21 00:15:13;;;;;;;9.05;2.72;;;;;;;1.50;79.83;101364.66;5069062;28;20115;-87
2022/01/21 00:17:38;;;;;;;7.75;3.17;;;;;;;1.63;79.82;101366.00;5067747;28;20020;-86
2022/01/21 00:31:02;;;;;;;6.68;2.55;;;;;;;1.90;79.27;101398.16;5077348;28;20106;-87
2022/01/21 00:33:27;;;;;;;16.10;3.88;;;;;;;2.15;78.60;101400.88;5067586;28;20052;-87
2022/01/21 00:35:52;;;;;;;16.77;5.85;;;;;;;2.32;78.05;101396.31;5084069;28;20039;-86
2022/01/21 00:38:18;;;;;;;19.77;5.15;;;;;;;1.84;79.73;101405.03;5063345;28;20032;-86
2022/01/21 00:40:43;;;;;;;15.07;3.97;;;;;;;1.70;79.79;101401.16;5079005;28;20471;-86
2022/01/21 00:45:34;;;;;;;8.63;3.17;;;;;;;2.20;78.34;101415.50;5083498;28;20504;-85
2022/01/21 00:47:59;;;;;;;5.50;2.67;;;;;;;2.16;78.47;101411.47;5078493;28;20095;-87
2022/01/21 00:50:25;;;;;;;11.95;3.78;;;;;;;2.12;78.36;101417.34;5076071;28;20170;-86
2022/01/21 00:52:50;;;;;;;9.82;4.13;;;;;;;1.97;78.67;101407.25;5077816;28;20020;-86
2022/01/21 00:55:15;;;;;;;20.10;5.30;;;;;;;1.94;79.46;101405.72;5054373;28;20108;-86
2022/01/21 00:57:41;;;;;;;9.90;3.97;;;;;;;1.98;79.20;101407.09;5075203;28;20031;-87
2022/01/21 01:00:09;;;;;;;8.23;3.63;;;;;;;2.38;77.89;101406.41;5076889;28;20058;-86
2022/01/21 01:02:35;;;;;;;11.50;3.85;;;;;;;2.11;78.08;101413.81;5081007;28;20554;-87
2022/01/21 01:05:00;;;;;;;16.35;4.70;;;;;;;2.05;78.59;101406.41;5076802;28;20173;-86
2022/01/21 01:07:26;;;;;;;12.48;3.63;;;;;;;1.81;79.94;101408.91;5078347;28;20032;-86
2022/01/21 01:09:54;;;;;;;8.82;3.67;;;;;;;1.94;79.55;101413.81;5080639;28;20028;-87
2022/01/21 01:12:34;;;;;;;11.13;2.40;;;;;;;1.84;79.77;101402.34;5079176;28;20024;-84
2022/01/21 01:20:28;;;;;;;8.88;3.60;;;;;;;2.13;78.37;101397.50;5078088;28;20169;-85
2022/01/21 01:23:00;;;;;;;14.48;4.35;;;;;;;1.61;80.32;101400.28;5049871;28;20491;-86
2022/01/21 01:28:09;;;;;;;10.18;3.80;;;;;;;2.03;78.97;101395.81;5078682;28;20115;-87
2022/01/21 01:30:36;;;;;;;21.35;4.85;;;;;;;2.02;78.64;101391.44;5059165;28;20619;-87
2022/01/21 01:36:08;;;;;;;9.20;3.75;;;;;;;1.97;78.11;101402.69;5050977;28;20453;-87
2022/01/21 01:38:58;;;;;;;17.65;5.03;;;;;;;1.72;79.17;101405.38;5085974;28;20394;-86
2022/01/21 01:41:23;;;;;;;15.65;3.70;;;;;;;1.72;79.01;101402.69;5084607;28;20121;-86
2022/01/21 01:49:36;;;;;;;12.57;3.88;;;;;;;2.10;78.35;101428.28;5067252;28;20043;-88
2022/01/21 01:52:07;;;;;;;16.85;5.15;;;;;;;1.75;79.36;101413.09;5065723;28;20025;-86
2022/01/21 01:54:36;;;;;;;15.27;4.30;;;;;;;1.17;81.55;101410.25;5049241;28;20468;-86
2022/01/21 01:57:02;;;;;;;23.80;5.22;;;;;;;1.74;80.51;101413.28;5048203;28;20653;-86
2022/01/21 01:59:28;;;;;;;9.98;3.47;;;;;;;1.73;79.52;101409.72;5066567;28;20020;-86
2022/01/21 02:02:02;;;;;;;16.50;5.50;;;;;;;1.74;80.37;101411.44;5048745;28;20055;-86
2022/01/21 02:04:29;;;;;;;13.25;4.95;;;;;;;1.61;80.96;101406.50;5065840;28;20021;-86
2022/01/21 02:06:54;;;;;;;9.77;4.35;;;;;;;1.81;80.71;101405.38;5066784;28;20491;-86
2022/01/21 02:09:20;;;;;;;11.00;3.83;;;;;;;2.01;79.18;101403.22;5047700;28;20108;-86
2022/01/21 02:11:46;;;;;;;11.88;3.50;;;;;;;2.08;78.92;101396.16;5066596;28;20851;-87
2022/01/21 02:14:37;;;;;;;12.23;5.53;;;;;;;2.19;79.08;101395.00;5065405;28;20107;-87
2022/01/21 02:22:19;;;;;;;13.27;4.32;;;;;;;2.13;78.40;101397.50;5084032;28;20094;-86
2022/01/21 02:24:53;;;;;;;8.68;3.20;;;;;;;1.62;79.34;101402.00;5086821;28;20016;-85
2022/01/21 02:27:18;;;;;;;18.53;6.33;;;;;;;2.00;79.29;101416.81;5085781;28;20070;-86
2022/01/21 02:32:13;;;;;;;12.30;4.70;;;;;;;1.99;79.75;101410.63;5065791;28;20330;-87
2022/01/21 02:34:38;;;;;;;11.55;4.25;;;;;;;1.75;80.59;101421.16;5064849;28;20139;-87
2022/01/21 02:37:04;;;;;;;12.65;4.05;;;;;;;1.79;80.47;101412.78;5066272;28;20147;-87
2022/01/21 02:39:30;;;;;;;10.50;3.88;;;;;;;1.79;80.84;101407.41;5064664;28;20047;-87
2022/01/21 02:41:55;;;;;;;11.68;4.28;;;;;;;2.01;80.30;101421.22;5066676;28;20021;-86
2022/01/21 02:44:21;;;;;;;14.38;4.80;;;;;;;2.07;79.60;101415.16;5064927;28;20204;-86
2022/01/21 02:46:48;;;;;;;16.00;5.55;;;;;;;2.12;78.64;101418.19;5065409;28;20067;-86
2022/01/21 02:49:14;;;;;;;17.90;5.43;;;;;;;1.90;80.36;101417.84;5065462;28;20028;-87
2022/01/21 02:51:39;;;;;;;16.27;4.97;;;;;;;2.05;79.69;101414.50;5065106;28;20052;-86
2022/01/21 02:54:05;;;;;;;12.70;5.18;;;;;;;2.12;79.12;101412.81;5065968;28;20110;-87
2022/01/21 02:56:40;;;;;;;21.73;4.43;;;;;;;2.18;78.40;101412.13;5064820;28;20392;-86
2022/01/21 02:59:07;;;;;;;14.38;4.47;;;;;;;1.75;79.40;101414.94;5060027;28;20037;-87
2022/01/21 03:01:34;;;;;;;11.68;4.07;;;;;;;1.91;79.34;101421.38;5064696;28;20079;-87
2022/01/21 03:04:00;;;;;;;15.48;4.05;;;;;;;2.02;79.39;101417.50;5047087;28;20381;-86
2022/01/21 03:06:26;;;;;;;11.02;3.42;;;;;;;1.99;79.12;101410.63;5065151;28;20035;-87
2022/01/21 03:08:54;;;;;;;11.95;4.63;;;;;;;2.05;79.09;101422.56;5064791;28;20032;-86
2022/01/21 03:11:21;;;;;;;10.70;4.07;;;;;;;2.09;78.90;101424.75;5066018;28;20082;-87
2022/01/21 03:13:47;;;;;;;20.23;4.20;;;;;;;2.10;79.90;101426.44;5064706;28;20017;-86
2022/01/21 03:16:13;;;;;;;11.35;4.38;;;;;;;2.21;79.07;101417.19;5065522;28;20033;-86
2022/01/21 03:18:39;;;;;;;14.90;3.72;;;;;;;2.39;78.13;101418.84;5064093;28;20452;-86
2022/01/21 03:21:05;;;;;;;8.27;4.68;;;;;;;2.02;79.28;101422.88;5073683;28;20071;-87
2022/01/21 03:23:30;;;;;;;12.45;3.35;;;;;;;2.12;79.67;101423.56;5066790;28;20059;-85
2022/01/21 03:25:56;;;;;;;11.75;5.10;;;;;;;2.32;78.58;101423.22;5085483;28;20065;-87
2022/01/21 03:28:21;;;;;;;9.38;4.10;;;;;;;2.32;78.84;101429.47;5084830;28;20042;-87
2022/01/21 03:30:50;;;;;;;9.65;3.67;;;;;;;2.19;78.14;101421.06;5075806;28;20033;-87
2022/01/21 03:33:16;;;;;;;10.55;3.42;;;;;;;2.34;79.08;101429.28;5065545;28;20020;-86
2022/01/21 03:38:44;;;;;;;16.88;3.58;;;;;;;1.89;80.83;101435.00;5061470;28;20097;-87
2022/01/21 03:41:09;;;;;;;14.48;4.28;;;;;;;1.89;80.27;101429.63;5065196;28;20404;-85
2022/01/21 03:43:35;;;;;;;8.77;4.35;;;;;;;2.08;80.29;101423.06;5063908;28;20307;-86
2022/01/21 03:46:02;;;;;;;8.88;3.22;;;;;;;2.25;79.85;101427.59;5065482;28;20036;-87
2022/01/21 03:48:28;;;;;;;8.60;3.30;;;;;;;1.86;80.38;101413.78;5050356;28;20092;-85
2022/01/21 03:50:54;;;;;;;11.32;3.97;;;;;;;1.53;81.67;101419.13;5069719;28;20121;-86
2022/01/21 03:53:20;;;;;;;9.52;4.00;;;;;;;1.92;80.68;101418.50;5068591;28;20116;-87
2022/01/21 03:55:46;;;;;;;13.68;4.90;;;;;;;2.14;80.22;101429.63;5069002;28;20028;-87
2022/01/21 03:58:13;;;;;;;6.88;2.92;;;;;;;2.25;79.84;101435.69;5068469;28;20455;-87
2022/01/21 04:00:45;;;;;;;15.68;5.32;;;;;;;2.29;79.36;101419.03;5050515;28;20024;-86
2022/01/21 04:03:10;;;;;;;12.20;4.13;;;;;;;2.20;79.69;101417.34;5069024;28;20380;-86
2022/01/21 04:05:36;;;;;;;19.83;5.68;;;;;;;2.26;79.65;101434.69;5068508;28;20111;-85
2022/01/21 04:08:03;;;;;;;14.73;5.13;;;;;;;2.25;79.08;101431.16;5069268;28;20119;-86
2022/01/21 04:10:29;;;;;;;12.15;3.65;;;;;;;2.39;78.73;101429.63;5068204;28;20708;-87
2022/01/21 04:12:54;;;;;;;10.63;3.47;;;;;;;1.82;80.87;101434.81;5067690;28;20360;-87
2022/01/21 04:15:20;;;;;;;9.50;3.35;;;;;;;2.03;81.07;101435.34;5068338;28;20028;-86
2022/01/21 04:17:45;;;;;;;9.23;3.00;;;;;;;2.13;79.62;101430.66;5067913;28;20021;-86
2022/01/21 04:20:12;;;;;;;14.18;4.63;;;;;;;1.45;81.66;101438.72;5069236;28;20067;-87
2022/01/21 04:25:22;;;;;;;9.45;4.30;;;;;;;2.14;80.21;101424.25;5085399;28;20328;-87
2022/01/21 04:27:47;;;;;;;16.67;3.55;;;;;;;2.01;80.71;101426.59;5088409;28;20036;-86
2022/01/21 04:30:13;;;;;;;10.75;3.00;;;;;;;1.77;81.37;101421.00;5083872;28;20032;-86
2022/01/21 04:32:38;;;;;;;12.60;4.60;;;;;;;2.01;80.19;101427.44;5050149;28;20040;-86
2022/01/21 04:35:04;;;;;;;11.43;3.47;;;;;;;1.47;81.22;101416.06;5068019;28;20456;-86
2022/01/21 04:37:29;;;;;;;11.52;3.92;;;;;;;1.90;80.94;101414.28;5067640;28;20843;-86
2022/01/21 04:40:06;;;;;;;16.23;4.18;;;;;;;1.72;80.76;101428.72;5066978;28;20032;-86
2022/01/21 04:47:59;;;;;;;12.32;3.35;;;;;;;1.67;82.08;101431.91;5067267;28;20055;-87
2022/01/21 04:50:26;;;;;;;13.25;3.70;;;;;;;1.85;81.93;101426.38;5068253;28;20025;-86
2022/01/21 04:52:52;;;;;;;14.95;5.05;;;;;;;1.50;82.48;101425.66;5067186;28;20327;-86
2022/01/21 04:55:18;;;;;;;12.20;5.05;;;;;;;1.95;81.81;101415.47;5067816;28;20332;-85
2022/01/21 04:57:43;;;;;;;15.10;5.07;;;;;;;2.20;79.72;101415.50;5066063;28;20028;-87
2022/01/21 05:00:09;;;;;;;18.23;4.47;;;;;;;2.15;81.24;101417.00;5065649;28;20550;-86
2022/01/21 05:02:35;;;;;;;24.17;6.05;;;;;;;2.31;80.25;101406.25;5047301;28;20068;-87
2022/01/21 05:05:03;;;;;;;13.13;5.28;;;;;;;1.88;81.36;101422.53;5067163;28;20092;-87
2022/01/21 05:07:30;;;;;;;16.30;5.45;;;;;;;1.93;81.71;101424.75;5083039;28;20039;-86
2022/01/21 05:09:56;;;;;;;18.08;5.65;;;;;;;2.04;81.48;101420.88;5067120;28;20222;-86
2022/01/21 05:12:23;;;;;;;19.83;6.32;;;;;;;2.01;81.14;101410.44;5067400;28;20213;-86
2022/01/21 05:17:25;;;;;;;16.60;6.60;;;;;;;1.78;81.71;101421.84;5067555;28;20031;-86
2022/01/21 05:19:50;;;;;;;19.40;7.20;;;;;;;1.85;82.46;101436.34;5067260;28;20043;-86
2022/01/21 05:22:16;;;;;;;13.68;5.35;;;;;;;2.17;81.36;101433.84;5085075;28;20480;-86
2022/01/21 05:24:42;;;;;;;19.27;5.80;;;;;;;2.12;81.48;101428.94;5087514;28;20077;-86
2022/01/21 05:27:10;;;;;;;37.05;7.32;;;;;;;2.28;80.99;101433.50;5086670;28;20032;-86
2022/01/21 05:29:35;;;;;;;13.10;5.97;;;;;;;1.89;81.90;101442.22;5069946;28;20024;-86
2022/01/21 05:32:05;;;;;;;13.32;5.90;;;;;;;1.60;82.95;101444.34;5066646;28;20032;-86
2022/01/21 05:34:31;;;;;;;13.82;6.22;;;;;;;1.94;81.88;101445.25;5067800;28;20016;-85
2022/01/21 05:36:56;;;;;;;13.55;5.72;;;;;;;1.95;81.56;101455.81;5066065;28;20054;-87
2022/01/21 05:39:22;;;;;;;14.40;5.53;;;;;;;1.67;82.81;101450.72;5067300;28;20029;-87
2022/01/21 05:41:51;;;;;;;16.98;5.60;;;;;;;1.44;83.07;101443.28;5065780;28;20118;-86
2022/01/21 05:47:09;;;;;;;15.82;7.45;;;;;;;1.94;83.15;101446.09;5065542;28;20079;-86
2022/01/21 05:49:36;;;;;;;11.77;5.35;;;;;;;1.82;82.23;101450.09;5048397;28;20024;-86
2022/01/21 05:52:06;;;;;;;16.88;5.65;;;;;;;2.22;81.47;101456.53;5049049;28;20024;-86
2022/01/21 05:54:32;;;;;;;16.67;6.20;;;;;;;1.97;81.50;101453.81;5082009;28;20499;-86
2022/01/21 05:57:00;;;;;;;23.58;6.80;;;;;;;1.88;82.55;101454.81;5066346;28;20028;-86
2022/01/21 05:59:26;;;;;;;20.60;4.78;;;;;;;1.69;83.12;101451.41;5066511;28;20056;-85
2022/01/21 06:01:51;;;;;;;10.70;5.13;;;;;;;2.03;82.28;101448.78;5048069;28;20063;-86
2022/01/21 06:04:17;;;;;;;19.88;5.32;;;;;;;2.29;80.98;101447.78;5046704;28;20021;-86
2022/01/21 06:06:42;;;;;;;14.05;4.38;;;;;;;2.36;80.63;101461.44;5045665;28;20029;-86
2022/01/21 06:09:07;;;;;;;23.15;8.02;;;;;;;2.25;80.81;101451.84;5046734;28;20078;-86
2022/01/21 06:11:34;;;;;;;13.95;4.85;;;;;;;2.19;81.32;101446.13;5045950;28;20033;-86
2022/01/21 06:17:02;;;;;;;17.88;4.63;;;;;;;1.89;82.96;101452.97;5060846;28;20051;-86
2022/01/21 06:19:28;;;;;;;10.73;3.88;;;;;;;2.12;82.07;101455.84;5065215;28;20032;-87
2022/01/21 06:21:53;;;;;;;11.93;4.60;;;;;;;2.01;81.93;101445.44;5081333;28;20047;-87
2022/01/21 06:24:18;;;;;;;9.88;4.45;;;;;;;2.36;81.54;101464.13;5077849;28;20158;-87
2022/01/21 06:26:45;;;;;;;16.63;5.00;;;;;;;1.93;81.66;101468.59;5065657;28;20065;-86
2022/01/21 06:29:10;;;;;;;13.57;6.50;;;;;;;1.98;82.19;101465.44;5065596;28;20318;-86
2022/01/21 06:31:35;;;;;;;6.68;3.72;;;;;;;1.84;82.03;101478.53;5049335;28;20044;-87
2022/01/21 06:34:00;;;;;;;12.32;4.15;;;;;;;1.47;83.78;101474.34;5046153;28;20036;-87
2022/01/21 06:36:26;;;;;;;15.93;5.85;;;;;;;1.69;84.10;101474.78;5045024;28;20247;-87
2022/01/21 06:38:51;;;;;;;10.95;4.40;;;;;;;1.85;83.08;101477.50;5046551;28;20021;-86
2022/01/21 06:41:17;;;;;;;15.75;4.07;;;;;;;1.86;83.28;101489.13;5044368;28;20021;-87
2022/01/21 06:43:42;;;;;;;10.05;4.57;;;;;;;1.82;82.44;101487.75;5056100;28;20145;-86
2022/01/21 06:46:10;;;;;;;16.58;4.68;;;;;;;2.26;81.29;101488.53;5047374;28;20024;-86
2022/01/21 06:48:36;;;;;;;15.25;4.63;;;;;;;2.43;80.70;101492.91;5047425;28;20498;-87
2022/01/21 06:51:01;;;;;;;10.02;4.53;;;;;;;2.12;82.01;101490.00;5065741;28;20054;-86
2022/01/21 06:53:26;;;;;;;14.43;7.10;;;;;;;2.27;81.47;101490.19;5065311;28;20365;-86
2022/01/21 06:55:52;;;;;;;11.63;4.60;;;;;;;2.01;81.55;101491.16;5047317;28;20021;-86
2022/01/21 06:58:17;;;;;;;10.15;4.88;;;;;;;1.77;83.47;101488.22;5045657;28;20035;-86
2022/01/21 07:00:42;;;;;;;13.80;5.10;;;;;;;1.69;83.29;101494.44;5065279;28;20033;-86
2022/01/21 07:03:08;;;;;;;16.40;5.10;;;;;;;1.81;83.54;101502.22;5065291;28;20025;-86
2022/01/21 07:05:33;;;;;;;11.95;5.88;;;;;;;1.80;83.35;101496.00;5047414;28;20025;-86
2022/01/21 07:08:00;;;;;;;13.35;4.78;;;;;;;1.50;84.47;101498.25;5065132;28;20029;-86
2022/01/21 07:10:27;;;;;;;16.00;5.50;;;;;;;1.66;83.27;101502.00;5046606;28;20056;-87
2022/01/21 07:12:52;;;;;;;12.10;6.18;;;;;;;1.54;84.96;101496.06;5064724;28;20089;-87
2022/01/21 07:15:19;;;;;;;9.43;5.70;;;;;;;1.63;84.88;101487.00;5064282;28;20016;-86
2022/01/21 07:17:46;;;;;;;9.95;4.97;;;;;;;1.79;83.60;101496.16;5065172;28;20024;-86
2022/01/21 07:20:11;;;;;;;9.57;4.13;;;;;;;1.55;83.76;101486.97;5046211;28;20491;-86
2022/01/21 07:22:38;;;;;;;17.92;5.47;;;;;;;1.49;84.20;101481.25;5064779;28;20056;-86
2022/01/21 07:25:04;;;;;;;13.02;5.78;;;;;;;1.71;84.07;101487.03;5064735;28;20440;-86
2022/01/21 07:27:29;;;;;;;15.10;3.63;;;;;;;1.62;83.06;101498.78;5045860;28;20028;-86
2022/01/21 07:29:55;;;;;;;13.35;4.95;;;;;;;1.43;84.69;101505.25;5063151;28;20082;-87
2022/01/21 07:32:20;;;;;;;9.98;4.38;;;;;;;1.39;84.29;101510.09;5046073;28;20151;-86
2022/01/21 07:34:45;;;;;;;12.02;4.90;;;;;;;1.39;85.17;101516.34;5047304;28;20028;-86
2022/01/21 07:37:26;;;;;;;13.77;5.55;;;;;;;1.57;83.43;101511.88;5046195;28;20783;-87
2022/01/21 07:39:51;;;;;;;20.92;5.68;;;;;;;1.40;84.06;101519.88;5064902;28;20036;-86
2022/01/21 07:42:16;;;;;;;13.57;5.45;;;;;;;1.40;84.81;101523.38;5064359;28;20502;-86
2022/01/21 07:44:42;;;;;;;15.13;5.38;;;;;;;1.89;83.20;101520.22;5064393;28;20024;-87
2022/01/21 07:47:07;;;;;;;14.98;5.85;;;;;;;2.04;82.22;101520.41;5064348;28;20495;-87
2022/01/21 07:49:32;;;;;;;13.93;5.78;;;;;;;2.04;81.31;101523.13;5063350;28;20101;-87
2022/01/21 07:51:58;;;;;;;19.02;4.90;;;;;;;1.78;82.39;101529.44;5064818;28;20429;-87
2022/01/21 07:54:23;;;;;;;21.48;7.47;;;;;;;1.40;84.36;101528.75;5063207;28;20245;-85
2022/01/21 07:56:48;;;;;;;15.10;6.13;;;;;;;1.73;84.17;101533.44;5065154;28;20450;-86
2022/01/21 07:59:15;;;;;;;18.33;7.38;;;;;;;1.73;83.03;101533.44;5063886;28;20082;-87
2022/01/21 08:01:41;;;;;;;25.83;4.63;;;;;;;1.70;83.30;101532.94;5064347;28;20087;-87
2022/01/21 08:04:07;;;;;;;14.82;5.18;;;;;;;1.83;83.08;101529.81;5064298;28;20028;-87
2022/01/21 08:06:33;;;;;;;11.18;5.05;;;;;;;1.58;83.50;101535.06;5064558;28;20505;-87
2022/01/21 08:08:59;;;;;;;11.93;5.15;;;;;;;1.62;84.78;101520.31;5065389;28;20024;-87
2022/01/21 08:11:25;;;;;;;19.02;6.90;;;;;;;1.73;84.09;101528.06;5045738;28;20475;-86
2022/01/21 08:13:51;;;;;;;23.25;5.82;;;;;;;1.56;84.42;101532.56;5063871;28;20020;-86
2022/01/21 08:16:17;;;;;;;11.80;6.18;;;;;;;1.81;83.60;101518.38;5063221;28;20230;-86
2022/01/21 08:18:42;;;;;;;22.25;6.68;;;;;;;2.27;81.45;101520.66;5064656;28;20757;-86
2022/01/21 08:21:08;;;;;;;18.02;6.25;;;;;;;1.98;82.43;101514.72;5067502;28;20021;-87
2022/01/21 08:23:33;;;;;;;17.55;6.70;;;;;;;1.93;82.61;101511.66;5064979;28;20032;-87
2022/01/21 08:25:58;;;;;;;14.80;5.43;;;;;;;1.58;83.99;101521.63;5046354;28;20078;-86
2022/01/21 08:28:24;;;;;;;15.68;5.53;;;;;;;1.83;85.02;101535.19;5057097;28;20373;-86
2022/01/21 08:30:49;;;;;;;16.38;6.80;;;;;;;1.82;83.62;101530.78;5026786;28;20041;-87
2022/01/21 08:33:15;;;;;;;16.30;6.47;;;;;;;1.94;85.53;101531.34;5044745;28;20079;-87
2022/01/21 08:35:40;;;;;;;18.40;9.32;;;;;;;1.66;84.59;101526.19;5060827;28;20396;-86
2022/01/21 08:38:06;;;;;;;24.65;8.13;;;;;;;1.82;83.72;101530.78;5082606;28;20116;-87
2022/01/21 08:40:32;;;;;;;15.60;7.10;;;;;;;1.98;83.96;101541.63;5068269;28;20441;-87
2022/01/21 08:42:57;;;;;;;22.13;8.35;;;;;;;1.53;84.12;101548.16;5067426;28;20032;-86
2022/01/21 08:45:23;;;;;;;14.23;8.02;;;;;;;1.68;85.04;101545.69;5064809;28;20384;-86
2022/01/21 08:47:49;;;;;;;16.60;9.23;;;;;;;1.68;85.06;101546.56;5063696;28;20175;-86
2022/01/21 08:50:17;;;;;;;12.85;6.90;;;;;;;1.96;83.70;101542.78;5049407;28;20081;-86
2022/01/21 08:52:44;;;;;;;12.35;7.25;;;;;;;1.87;84.24;101533.84;5068517;28;20111;-86
2022/01/21 08:55:13;;;;;;;13.18;8.35;;;;;;;2.01;83.24;101542.28;5067031;28;20479;-87
2022/01/21 08:57:41;;;;;;;15.38;8.10;;;;;;;1.91;83.78;101535.19;5067353;28;20115;-87
2022/01/21 09:00:09;;;;;;;19.65;7.47;;;;;;;1.54;84.83;101536.41;5066234;28;20040;-87
2022/01/21 09:02:35;;;;;;;15.23;6.72;;;;;;;1.72;84.27;101531.78;5048622;28;20023;-86
2022/01/21 09:05:00;;;;;;;16.23;7.10;;;;;;;1.73;84.07;101537.97;5066752;28;20029;-86
2022/01/21 09:07:25;;;;;;;15.07;8.35;;;;;;;1.62;84.41;101541.81;5054431;28;20029;-86
2022/01/21 09:09:51;;;;;;;21.85;9.52;;;;;;;1.73;84.50;101536.13;5068209;28;20029;-86
2022/01/21 09:12:16;;;;;;;19.15;8.35;;;;;;;1.98;83.56;101536.22;5066642;28;20158;-86
2022/01/21 09:14:42;;;;;;;20.58;8.98;;;;;;;2.16;82.87;101543.34;5063193;28;20039;-86
2022/01/21 09:17:07;;;;;;;15.73;7.82;;;;;;;2.25;82.45;101540.66;5037418;28;20049;-85
2022/01/21 09:19:32;;;;;;;22.70;9.38;;;;;;;1.83;83.65;101543.25;5065715;28;20025;-86
2022/01/21 09:25:01;;;;;;;16.80;8.48;;;;;;;1.97;82.80;101545.28;5065135;28;20059;-86
2022/01/21 09:27:26;;;;;;;15.73;8.38;;;;;;;1.96;83.92;101542.78;5067195;28;20032;-86
2022/01/21 09:29:51;;;;;;;20.65;9.65;;;;;;;2.17;82.71;101550.41;5064883;28;20029;-86
2022/01/21 09:32:17;;;;;;;18.80;8.88;;;;;;;2.58;81.92;101547.94;5064944;28;20017;-86
2022/01/21 09:34:42;;;;;;;10.80;6.00;;;;;;;2.54;81.43;101550.13;5066338;28;20104;-86
2022/01/21 09:37:08;;;;;;;20.70;9.15;;;;;;;1.89;84.62;101539.91;5058290;28;20037;-86
2022/01/21 09:39:33;;;;;;;22.67;9.57;;;;;;;2.18;83.89;101552.09;5066424;28;20039;-86
2022/01/21 09:42:02;;;;;;;29.38;9.30;;;;;;;2.36;84.25;101544.91;5065793;28;20025;-86
2022/01/21 09:44:29;;;;;;;19.65;8.80;;;;;;;2.33;83.23;101548.75;5065934;28;20043;-86
2022/01/21 09:46:58;;;;;;;17.17;10.77;;;;;;;2.28;82.47;101543.03;5074809;28;20130;-86
2022/01/21 09:49:27;;;;;;;18.50;8.55;;;;;;;2.35;82.58;101546.75;5069304;28;20032;-84
2022/01/21 09:52:05;;;;;;;18.65;10.10;;;;;;;2.67;81.95;101550.47;5066481;28;20116;-86
2022/01/21 09:54:34;;;;;;;15.73;8.43;;;;;;;2.34;82.70;101550.44;5084390;28;20028;-86
2022/01/21 09:57:02;;;;;;;16.48;7.88;;;;;;;2.53;82.30;101554.66;5067052;28;20021;-86
2022/01/21 09:59:30;;;;;;;16.08;8.25;;;;;;;2.64;81.72;101545.44;5047625;28;20487;-86
2022/01/21 10:02:00;;;;;;;16.20;8.85;;;;;;;2.55;81.25;101551.81;5066638;28;20020;-86
2022/01/21 10:04:29;;;;;;;17.58;8.55;;;;;;;2.47;81.83;101554.47;5065012;28;20067;-86
2022/01/21 10:06:55;;;;;;;24.92;8.13;;;;;;;2.48;82.71;101566.97;5065052;28;20154;-86
2022/01/21 10:09:23;;;;;;;17.67;8.60;;;;;;;2.41;82.08;101567.63;5064711;28;20028;-86
2022/01/21 10:11:50;;;;;;;14.95;7.65;;;;;;;2.31;83.65;101561.53;5046449;28;20019;-86
2022/01/21 10:14:20;;;;;;;12.68;7.85;;;;;;;2.36;83.19;101561.06;5045318;28;20047;-86
2022/01/21 10:16:48;;;;;;;17.63;8.55;;;;;;;2.35;82.22;101556.66;5065458;28;20021;-86
2022/01/21 10:19:31;;;;;;;17.50;8.35;;;;;;;2.56;81.84;101567.78;5066757;28;20531;-86
2022/01/21 10:22:11;;;;;;;32.50;10.98;;;;;;;2.60;82.45;101565.63;5079041;28;20120;-86
2022/01/21 10:24:51;;;;;;;18.92;8.68;;;;;;;2.18;83.64;101575.47;5066026;28;20546;-85
2022/01/21 10:27:25;;;;;;;21.05;9.98;;;;;;;2.44;83.48;101572.66;5066536;28;20460;-86
2022/01/21 10:29:51;;;;;;;19.63;8.82;;;;;;;2.60;81.82;101570.16;5065518;28;20017;-86
2022/01/21 10:32:31;;;;;;;25.25;10.52;;;;;;;2.60;82.69;101571.00;5066027;28;20514;-85
2022/01/21 10:34:57;;;;;;;29.75;12.43;;;;;;;2.47;83.22;101570.63;5065884;28;20040;-86
2022/01/21 10:37:34;;;;;;;19.48;10.45;;;;;;;3.15;80.87;101581.28;5047768;28;20045;-86
2022/01/21 10:40:01;;;;;;;18.13;10.13;;;;;;;2.58;83.25;101573.03;5047951;28;20437;-86
2022/01/21 10:42:27;;;;;;;19.27;9.35;;;;;;;3.01;82.43;101572.03;5074598;28;20275;-85
2022/01/21 10:44:52;;;;;;;28.35;10.65;;;;;;;2.71;82.53;101571.66;5047405;28;20373;-86
2022/01/21 10:47:18;;;;;;;25.67;9.63;;;;;;;3.10;81.38;101568.31;5069017;28;20313;-86
2022/01/21 10:50:05;;;;;;;18.98;10.15;;;;;;;2.99;82.84;101557.88;5072764;28;20016;-85
2022/01/21 10:52:31;;;;;;;16.85;10.40;;;;;;;3.21;81.05;101566.28;5068705;28;20027;-85
2022/01/21 10:54:57;;;;;;;17.98;10.40;;;;;;;3.03;82.26;101561.91;5067098;28;20115;-86
2022/01/21 10:57:22;;;;;;;21.10;10.63;;;;;;;3.04;82.32;101555.50;5076299;28;20217;-86
2022/01/21 10:59:58;;;;;;;20.92;10.45;;;;;;;2.99;83.06;101552.50;5061545;28;20453;-86
2022/01/21 11:02:29;;;;;;;17.98;10.05;;;;;;;3.42;81.54;101557.63;5056448;28;20387;-85
2022/01/21 11:04:57;;;;;;;17.70;9.52;;;;;;;3.69;79.79;101547.41;5060768;28;20020;-86
2022/01/21 11:08:01;;;;;;;19.20;8.52;;;;;;;3.72;79.49;101543.53;5038965;28;20092;-85
2022/01/21 11:10:32;;;;;;;27.70;11.05;;;;;;;3.77;79.04;101538.44;5049138;28;20135;-86
2022/01/21 11:12:58;;;;;;;22.40;8.38;;;;;;;3.89;79.31;101540.75;5058352;28;20093;-85
2022/01/21 11:15:24;;;;;;;19.20;8.60;;;;;;;3.41;80.07;101544.31;5063345;28;20051;-85
2022/01/21 11:17:59;;;;;;;16.30;7.75;;;;;;;3.83;79.63;101543.16;5063548;28;20021;-86
2022/01/21 11:20:39;;;;;;;25.52;10.95;;;;;;;3.87;79.04;101532.84;5062871;28;20040;-86
2022/01/21 11:23:06;;;;;;;22.75;9.48;;;;;;;3.78;79.37;101533.91;5063377;28;20029;-85
2022/01/21 11:25:51;;;;;;;15.77;7.78;;;;;;;3.58;80.39;101523.53;5063367;28;20033;-86
2022/01/21 11:28:19;;;;;;;16.52;8.55;;;;;;;3.91;79.88;101522.50;5063392;28;20031;-83
2022/01/21 11:30:45;;;;;;;19.67;7.80;;;;;;;3.65;80.62;101529.06;5069839;28;20037;-86
2022/01/21 11:33:10;;;;;;;17.02;7.30;;;;;;;3.92;79.33;101525.06;5073300;28;20023;-86
2022/01/21 11:35:36;;;;;;;11.23;6.75;;;;;;;3.92;79.55;101535.84;5056291;28;20040;-85
2022/01/21 11:38:18;;;;;;;22.95;6.25;;;;;;;4.11;78.54;101538.28;5063326;28;20396;-85
2022/01/21 11:40:44;;;;;;;20.70;7.10;;;;;;;3.78;80.03;101532.06;5064932;28;20044;-85
2022/01/21 11:43:10;;;;;;;14.95;6.70;;;;;;;4.07;79.16;101526.97;5062414;28;20472;-86
2022/01/21 11:50:42;;;;;;;37.58;7.50;;;;;;;3.91;79.47;101527.91;5069143;28;20044;-85
2022/01/21 11:53:07;;;;;;;16.20;7.18;;;;;;;3.55;81.25;101524.72;5084390;28;20032;-85
2022/01/21 11:55:36;;;;;;;12.73;6.90;;;;;;;3.98;80.00;101520.81;5083803;28;20047;-86
2022/01/21 11:58:23;;;;;;;25.58;9.52;;;;;;;3.65;80.16;101520.97;5080365;28;20032;-86
2022/01/21 12:00:51;;;;;;;17.70;7.07;;;;;;;3.60;81.22;101511.53;5072164;28;20036;-86
2022/01/21 12:03:23;;;;;;;11.63;5.68;;;;;;;3.80;80.43;101508.44;5063290;28;20024;-84
2022/01/21 12:05:49;;;;;;;30.10;6.88;;;;;;;3.96;80.61;101512.03;5064200;28;20040;-85
2022/01/21 12:08:14;;;;;;;21.13;8.40;;;;;;;4.20;79.48;101502.97;5065470;28;20024;-86
2022/01/21 12:10:44;;;;;;;18.25;6.10;;;;;;;3.78;81.51;101507.75;5067424;28;20032;-86
2022/01/21 12:13:17;;;;;;;16.58;8.55;;;;;;;4.13;79.75;101509.25;5069565;28;20073;-85
2022/01/21 12:15:54;;;;;;;12.52;6.57;;;;;;;4.14;81.20;101513.63;5069722;28;20123;-85
2022/01/21 12:21:03;;;;;;;15.52;7.95;;;;;;;4.50;78.47;101501.38;5067629;28;20071;-85
2022/01/21 12:23:30;;;;;;;13.27;6.20;;;;;;;4.26;79.78;101498.69;5074987;28;20040;-85
2022/01/21 12:26:10;;;;;;;22.30;7.43;;;;;;;4.27;80.12;101499.53;5060165;28;20032;-84
2022/01/21 12:28:40;;;;;;;17.95;7.70;;;;;;;4.00;81.76;101493.63;5079698;28;20141;-86
2022/01/21 12:31:06;;;;;;;15.52;7.75;;;;;;;4.04;81.20;101501.19;5077881;28;20043;-86
2022/01/21 12:36:20;;;;;;;19.05;6.55;;;;;;;4.06;79.63;101498.31;5077830;28;20069;-86
2022/01/21 12:41:16;;;;;;;17.40;6.68;;;;;;;3.95;81.71;101492.31;5082548;28;20526;-86